sensor_id;sensor_type;location;lat;lon;timestamp;temperature;humidity
26589;DHT22;14235;48.532;8.722;2023-03-21T00:00:57;9.30;99.90
26589;DHT22;14235;48.532;8.722;2023-03-21T00:03:24;9.10;99.90
26589;DHT22;14235;48.532;8.722;2023-03-21T00:05:50;8.90;99.90
26589;DHT22;14235;48.532;8.722;2023-03-21T00:08:21;10.90;99.90
26589;DHT22;14235;48.532;8.722;2023-03-21T00:10:58;9.10;99.90
26589;DHT22;14235;48.532;8.722;2023-03-21T00:13:24;9.60;99.90
26589;DHT22;14235;48.532;8.722;2023-03-21T00:15:51;9.50;99.90
26589;DHT22;14235;48.532;8.722;2023-03-21T00:18:21;9.00;99.90
26589;DHT22;14235;48.532;8.722;2023-03-21T00:21:04;9.20;99.90
26589;DHT22;14235;48.532;8.722;2023-03-21T00:23:31;9.20;99.90
26589;DHT22;14235;48.532;8.722;2023-03-21T00:25:57;9.00;99.90
26589;DHT22;14235;48.532;8.722;2023-03-21T00:28:23;9.00;99.90
26589;DHT22;14235;48.532;8.722;2023-03-21T00:30:50;9.00;99.90
26589;DHT22;14235;48.532;8.722;2023-03-21T00:33:15;9.20;99.90
26589;DHT22;14235;48.532;8.722;2023-03-21T00:35:45;9.40;99.90
26589;DHT22;14235;48.532;8.722;2023-03-21T00:38:13;9.10;99.90
26589;DHT22;14235;48.532;8.722;2023-03-21T00:40:38;8.90;99.90
26589;DHT22;14235;48.532;8.722;2023-03-21T00:43:04;9.10;99.90
26589;DHT22;14235;48.532;8.722;2023-03-21T00:45:33;8.90;99.90
26589;DHT22;14235;48.532;8.722;2023-03-21T00:47:59;9.60;99.90
26589;DHT22;14235;48.532;8.722;2023-03-21T00:50:24;9.70;99.90
26589;DHT22;14235;48.532;8.722;2023-03-21T00:52:50;9.10;99.90
26589;DHT22;14235;48.532;8.722;2023-03-21T00:55:18;8.90;99.90
26589;DHT22;14235;48.532;8.722;2023-03-21T00:57:44;9.70;99.90
26589;DHT22;14235;48.532;8.722;2023-03-21T01:00:12;9.00;99.90
26589;DHT22;14235;48.532;8.722;2023-03-21T01:02:39;9.10;99.90
26589;DHT22;14235;48.532;8.722;2023-03-21T01:05:25;9.80;99.90
26589;DHT22;14235;48.532;8.722;2023-03-21T01:08:19;10.00;99.90
26589;DHT22;14235;48.532;8.722;2023-03-21T01:13:14;9.10;99.90
26589;DHT22;14235;48.532;8.722;2023-03-21T01:15:46;9.00;99.90
26589;DHT22;14235;48.532;8.722;2023-03-21T01:18:13;8.80;99.90
26589;DHT22;14235;48.532;8.722;2023-03-21T01:20:43;8.90;99.90
26589;DHT22;14235;48.532;8.722;2023-03-21T01:23:11;8.70;99.90
26589;DHT22;14235;48.532;8.722;2023-03-21T01:25:36;9.00;99.90
26589;DHT22;14235;48.532;8.722;2023-03-21T01:28:03;8.80;99.90
26589;DHT22;14235;48.532;8.722;2023-03-21T01:30:29;9.10;99.90
26589;DHT22;14235;48.532;8.722;2023-03-21T01:32:55;10.10;99.90
26589;DHT22;14235;48.532;8.722;2023-03-21T01:35:21;8.80;99.90
26589;DHT22;14235;48.532;8.722;2023-03-21T01:37:47;9.90;99.90
26589;DHT22;14235;48.532;8.722;2023-03-21T01:40:20;8.90;99.90
26589;DHT22;14235;48.532;8.722;2023-03-21T01:42:46;9.30;99.90
26589;DHT22;14235;48.532;8.722;2023-03-21T01:48:16;9.00;99.90
26589;DHT22;14235;48.532;8.722;2023-03-21T01:50:42;8.80;99.90
26589;DHT22;14235;48.532;8.722;2023-03-21T01:53:08;8.90;99.90
26589;DHT22;14235;48.532;8.722;2023-03-21T01:55:35;9.20;99.90
26589;DHT22;14235;48.532;8.722;2023-03-21T01:58:02;8.80;99.90
26589;DHT22;14235;48.532;8.722;2023-03-21T02:00:29;9.10;99.90
26589;DHT22;14235;48.532;8.722;2023-03-21T02:02:57;9.80;99.90
26589;DHT22;14235;48.532;8.722;2023-03-21T02:08:20;8.70;99.90
26589;DHT22;14235;48.532;8.722;2023-03-21T02:10:47;8.60;99.90
26589;DHT22;14235;48.532;8.722;2023-03-21T02:13:13;8.50;99.90
26589;DHT22;14235;48.532;8.722;2023-03-21T02:15:51;8.80;99.90
26589;DHT22;14235;48.532;8.722;2023-03-21T02:21:35;9.10;99.90
26589;DHT22;14235;48.532;8.722;2023-03-21T02:27:16;8.50;99.90
26589;DHT22;14235;48.532;8.722;2023-03-21T02:37:55;8.50;99.90
26589;DHT22;14235;48.532;8.722;2023-03-21T02:40:46;8.40;99.90
26589;DHT22;14235;48.532;8.722;2023-03-21T02:43:31;8.40;99.90
26589;DHT22;14235;48.532;8.722;2023-03-21T02:46:18;8.40;99.90
26589;DHT22;14235;48.532;8.722;2023-03-21T02:49:00;8.40;99.90
26589;DHT22;14235;48.532;8.722;2023-03-21T02:51:30;8.30;99.90
26589;DHT22;14235;48.532;8.722;2023-03-21T02:54:00;9.70;99.90
26589;DHT22;14235;48.532;8.722;2023-03-21T02:56:28;8.40;99.90
26589;DHT22;14235;48.532;8.722;2023-03-21T02:58:56;8.40;99.90
26589;DHT22;14235;48.532;8.722;2023-03-21T03:01:21;7.90;99.90
26589;DHT22;14235;48.532;8.722;2023-03-21T03:03:50;7.90;99.90
26589;DHT22;14235;48.532;8.722;2023-03-21T03:06:26;8.00;99.90
26589;DHT22;14235;48.532;8.722;2023-03-21T03:09:06;8.10;99.90
26589;DHT22;14235;48.532;8.722;2023-03-21T03:11:40;7.90;99.90
26589;DHT22;14235;48.532;8.722;2023-03-21T03:22:25;7.90;99.90
26589;DHT22;14235;48.532;8.722;2023-03-21T03:24:59;7.90;99.90
26589;DHT22;14235;48.532;8.722;2023-03-21T03:27:29;8.90;99.90
26589;DHT22;14235;48.532;8.722;2023-03-21T03:29:58;7.70;99.90
26589;DHT22;14235;48.532;8.722;2023-03-21T03:32:30;8.70;99.90
26589;DHT22;14235;48.532;8.722;2023-03-21T03:35:00;7.80;99.90
26589;DHT22;14235;48.532;8.722;2023-03-21T03:37:29;7.60;99.90
26589;DHT22;14235;48.532;8.722;2023-03-21T03:42:54;7.50;99.90
26589;DHT22;14235;48.532;8.722;2023-03-21T03:45:27;8.60;99.90
26589;DHT22;14235;48.532;8.722;2023-03-21T03:48:21;7.20;99.90
26589;DHT22;14235;48.532;8.722;2023-03-21T03:51:09;7.50;99.90
26589;DHT22;14235;48.532;8.722;2023-03-21T03:53:42;7.30;99.90
26589;DHT22;14235;48.532;8.722;2023-03-21T03:56:10;7.70;99.90
26589;DHT22;14235;48.532;8.722;2023-03-21T03:58:37;7.30;99.90
26589;DHT22;14235;48.532;8.722;2023-03-21T04:01:09;7.20;99.90
26589;DHT22;14235;48.532;8.722;2023-03-21T04:03:36;7.20;99.90
26589;DHT22;14235;48.532;8.722;2023-03-21T04:06:03;7.10;99.90
26589;DHT22;14235;48.532;8.722;2023-03-21T04:08:29;7.20;99.90
26589;DHT22;14235;48.532;8.722;2023-03-21T04:10:55;7.00;99.90
26589;DHT22;14235;48.532;8.722;2023-03-21T04:13:20;7.00;99.90
26589;DHT22;14235;48.532;8.722;2023-03-21T04:15:46;7.80;99.90
26589;DHT22;14235;48.532;8.722;2023-03-21T04:18:12;7.30;99.90
26589;DHT22;14235;48.532;8.722;2023-03-21T04:20:37;6.70;99.90
26589;DHT22;14235;48.532;8.722;2023-03-21T04:23:04;6.90;99.90
26589;DHT22;14235;48.532;8.722;2023-03-21T04:25:32;7.10;99.90
26589;DHT22;14235;48.532;8.722;2023-03-21T04:27:57;7.20;99.90
26589;DHT22;14235;48.532;8.722;2023-03-21T04:30:23;6.80;99.90
26589;DHT22;14235;48.532;8.722;2023-03-21T04:32:50;7.40;99.90
26589;DHT22;14235;48.532;8.722;2023-03-21T04:35:19;6.80;99.90
26589;DHT22;14235;48.532;8.722;2023-03-21T04:37:45;7.10;99.90
26589;DHT22;14235;48.532;8.722;2023-03-21T04:40:11;6.60;99.90
26589;DHT22;14235;48.532;8.722;2023-03-21T04:42:37;6.80;99.90
26589;DHT22;14235;48.532;8.722;2023-03-21T04:45:03;6.80;99.90
26589;DHT22;14235;48.532;8.722;2023-03-21T04:47:29;6.70;99.90
26589;DHT22;14235;48.532;8.722;2023-03-21T04:49:55;6.50;99.90
26589;DHT22;14235;48.532;8.722;2023-03-21T04:52:21;6.60;99.90
26589;DHT22;14235;48.532;8.722;2023-03-21T04:54:47;6.50;99.90
26589;DHT22;14235;48.532;8.722;2023-03-21T04:57:13;6.50;99.90
26589;DHT22;14235;48.532;8.722;2023-03-21T04:59:38;6.30;99.90
26589;DHT22;14235;48.532;8.722;2023-03-21T05:02:04;6.50;99.90
26589;DHT22;14235;48.532;8.722;2023-03-21T05:04:31;6.30;99.90
26589;DHT22;14235;48.532;8.722;2023-03-21T05:06:57;6.20;99.90
26589;DHT22;14235;48.532;8.722;2023-03-21T05:09:23;6.30;99.90
26589;DHT22;14235;48.532;8.722;2023-03-21T05:11:49;6.40;99.90
26589;DHT22;14235;48.532;8.722;2023-03-21T05:14:21;6.30;99.90
26589;DHT22;14235;48.532;8.722;2023-03-21T05:16:48;6.10;99.90
26589;DHT22;14235;48.532;8.722;2023-03-21T05:19:18;6.60;99.90
26589;DHT22;14235;48.532;8.722;2023-03-21T05:21:45;6.70;99.90
26589;DHT22;14235;48.532;8.722;2023-03-21T05:24:17;6.20;99.90
26589;DHT22;14235;48.532;8.722;2023-03-21T05:26:44;5.90;99.90
26589;DHT22;14235;48.532;8.722;2023-03-21T05:29:20;6.10;99.90
26589;DHT22;14235;48.532;8.722;2023-03-21T05:31:46;6.30;99.90
26589;DHT22;14235;48.532;8.722;2023-03-21T05:34:12;6.10;99.90
26589;DHT22;14235;48.532;8.722;2023-03-21T05:36:38;6.10;99.90
26589;DHT22;14235;48.532;8.722;2023-03-21T05:39:04;6.20;99.90
26589;DHT22;14235;48.532;8.722;2023-03-21T05:41:30;6.20;99.90
26589;DHT22;14235;48.532;8.722;2023-03-21T05:43:56;6.40;99.90
26589;DHT22;14235;48.532;8.722;2023-03-21T05:46:21;6.90;99.90
26589;DHT22;14235;48.532;8.722;2023-03-21T05:48:47;5.90;99.90
26589;DHT22;14235;48.532;8.722;2023-03-21T05:51:12;5.80;99.90
26589;DHT22;14235;48.532;8.722;2023-03-21T05:53:38;5.90;99.90
26589;DHT22;14235;48.532;8.722;2023-03-21T05:56:04;5.80;99.90
26589;DHT22;14235;48.532;8.722;2023-03-21T06:15:38;5.80;99.90
26589;DHT22;14235;48.532;8.722;2023-03-21T06:18:04;5.80;99.90
26589;DHT22;14235;48.532;8.722;2023-03-21T06:20:30;5.90;99.90
26589;DHT22;14235;48.532;8.722;2023-03-21T06:22:56;5.90;99.90
26589;DHT22;14235;48.532;8.722;2023-03-21T06:25:21;5.80;99.90
26589;DHT22;14235;48.532;8.722;2023-03-21T06:27:47;5.60;99.90
26589;DHT22;14235;48.532;8.722;2023-03-21T06:30:13;5.70;99.90
26589;DHT22;14235;48.532;8.722;2023-03-21T06:32:39;5.90;99.90
26589;DHT22;14235;48.532;8.722;2023-03-21T06:35:05;5.80;99.90
26589;DHT22;14235;48.532;8.722;2023-03-21T06:37:30;5.90;99.90
26589;DHT22;14235;48.532;8.722;2023-03-21T06:39:56;5.80;99.90
26589;DHT22;14235;48.532;8.722;2023-03-21T06:42:22;5.90;99.90
26589;DHT22;14235;48.532;8.722;2023-03-21T06:44:47;5.80;99.90
26589;DHT22;14235;48.532;8.722;2023-03-21T06:47:13;5.80;99.90
26589;DHT22;14235;48.532;8.722;2023-03-21T06:49:38;5.90;99.90
26589;DHT22;14235;48.532;8.722;2023-03-21T06:52:05;5.90;99.90
26589;DHT22;14235;48.532;8.722;2023-03-21T06:54:30;5.80;99.90
26589;DHT22;14235;48.532;8.722;2023-03-21T06:56:56;5.90;99.90
26589;DHT22;14235;48.532;8.722;2023-03-21T06:59:22;5.90;99.90
26589;DHT22;14235;48.532;8.722;2023-03-21T07:01:47;6.00;99.90
26589;DHT22;14235;48.532;8.722;2023-03-21T07:04:13;6.00;99.90
26589;DHT22;14235;48.532;8.722;2023-03-21T07:06:38;6.10;99.90
26589;DHT22;14235;48.532;8.722;2023-03-21T07:11:31;6.20;99.90
26589;DHT22;14235;48.532;8.722;2023-03-21T07:21:18;6.20;99.90
26589;DHT22;14235;48.532;8.722;2023-03-21T07:23:44;6.70;99.90
26589;DHT22;14235;48.532;8.722;2023-03-21T07:38:25;7.30;99.90
26589;DHT22;14235;48.532;8.722;2023-03-21T07:40:52;7.30;99.90
26589;DHT22;14235;48.532;8.722;2023-03-21T07:43:18;7.30;99.90
26589;DHT22;14235;48.532;8.722;2023-03-21T07:45:44;7.40;99.90
26589;DHT22;14235;48.532;8.722;2023-03-21T08:25:07;9.00;99.90
26589;DHT22;14235;48.532;8.722;2023-03-21T08:37:23;9.40;99.90
26589;DHT22;14235;48.532;8.722;2023-03-21T08:42:15;9.50;99.90
26589;DHT22;14235;48.532;8.722;2023-03-21T09:23:48;11.30;99.90
26589;DHT22;14235;48.532;8.722;2023-03-21T09:26:17;11.40;99.90
26589;DHT22;14235;48.532;8.722;2023-03-21T09:31:11;10.90;99.90
26589;DHT22;14235;48.532;8.722;2023-03-21T09:36:07;11.60;99.90
26589;DHT22;14235;48.532;8.722;2023-03-21T09:38:41;11.60;99.90
26589;DHT22;14235;48.532;8.722;2023-03-21T09:46:41;12.20;99.90
26589;DHT22;14235;48.532;8.722;2023-03-21T09:49:21;12.00;99.90
26589;DHT22;14235;48.532;8.722;2023-03-21T09:51:51;12.20;99.90
26589;DHT22;14235;48.532;8.722;2023-03-21T09:54:25;12.60;99.90
26589;DHT22;14235;48.532;8.722;2023-03-21T09:56:54;12.00;99.90
26589;DHT22;14235;48.532;8.722;2023-03-21T09:59:28;12.90;99.90
26589;DHT22;14235;48.532;8.722;2023-03-21T10:01:57;12.80;99.90
26589;DHT22;14235;48.532;8.722;2023-03-21T10:04:24;12.00;99.90
26589;DHT22;14235;48.532;8.722;2023-03-21T10:06:57;11.70;99.90
26589;DHT22;14235;48.532;8.722;2023-03-21T10:09:26;12.30;99.90
26589;DHT22;14235;48.532;8.722;2023-03-21T10:14:35;12.20;99.90
26589;DHT22;14235;48.532;8.722;2023-03-21T10:20:24;12.30;99.90
26589;DHT22;14235;48.532;8.722;2023-03-21T10:22:53;12.40;99.90
26589;DHT22;14235;48.532;8.722;2023-03-21T10:25:24;12.90;99.90
26589;DHT22;14235;48.532;8.722;2023-03-21T10:27:50;12.40;99.90
26589;DHT22;14235;48.532;8.722;2023-03-21T10:30:36;13.20;99.90
26589;DHT22;14235;48.532;8.722;2023-03-21T10:33:06;12.60;99.90
26589;DHT22;14235;48.532;8.722;2023-03-21T10:35:35;13.40;99.90
26589;DHT22;14235;48.532;8.722;2023-03-21T10:38:03;13.00;99.90
26589;DHT22;14235;48.532;8.722;2023-03-21T11:00:40;13.10;99.90
26589;DHT22;14235;48.532;8.722;2023-03-21T11:03:21;13.10;99.90
26589;DHT22;14235;48.532;8.722;2023-03-21T11:05:51;13.40;99.90
26589;DHT22;14235;48.532;8.722;2023-03-21T11:08:17;13.40;99.90
26589;DHT22;14235;48.532;8.722;2023-03-21T11:11:08;13.50;99.90
26589;DHT22;14235;48.532;8.722;2023-03-21T11:13:38;13.70;99.90
26589;DHT22;14235;48.532;8.722;2023-03-21T11:18:31;13.30;99.90
26589;DHT22;14235;48.532;8.722;2023-03-21T11:21:05;14.00;99.90
26589;DHT22;14235;48.532;8.722;2023-03-21T11:23:33;13.50;99.90
26589;DHT22;14235;48.532;8.722;2023-03-21T11:26:00;13.30;99.90
26589;DHT22;14235;48.532;8.722;2023-03-21T11:31:01;13.50;99.90
26589;DHT22;14235;48.532;8.722;2023-03-21T11:33:33;13.50;99.90
26589;DHT22;14235;48.532;8.722;2023-03-21T11:56:37;14.00;99.90
26589;DHT22;14235;48.532;8.722;2023-03-21T12:04:46;13.90;99.90
26589;DHT22;14235;48.532;8.722;2023-03-21T12:07:24;14.50;99.90
26589;DHT22;14235;48.532;8.722;2023-03-21T12:30:59;15.00;99.90
26589;DHT22;14235;48.532;8.722;2023-03-21T12:44:25;15.50;78.90
26589;DHT22;14235;48.532;8.722;2023-03-21T12:46:57;15.70;76.60
26589;DHT22;14235;48.532;8.722;2023-03-21T12:49:47;16.10;76.60
26589;DHT22;14235;48.532;8.722;2023-03-21T12:52:27;15.70;75.50
26589;DHT22;14235;48.532;8.722;2023-03-21T12:55:08;15.80;77.60
26589;DHT22;14235;48.532;8.722;2023-03-21T12:57:41;15.80;78.70
26589;DHT22;14235;48.532;8.722;2023-03-21T13:00:20;16.00;76.20
26589;DHT22;14235;48.532;8.722;2023-03-21T13:05:29;16.00;75.20
26589;DHT22;14235;48.532;8.722;2023-03-21T13:10:43;16.00;77.40
26589;DHT22;14235;48.532;8.722;2023-03-21T13:19:00;16.00;70.70
26589;DHT22;14235;48.532;8.722;2023-03-21T13:27:04;16.00;68.50
26589;DHT22;14235;48.532;8.722;2023-03-21T13:32:30;15.90;68.50
26589;DHT22;14235;48.532;8.722;2023-03-21T13:37:34;15.80;64.70
26589;DHT22;14235;48.532;8.722;2023-03-21T13:40:29;15.80;66.00
26589;DHT22;14235;48.532;8.722;2023-03-21T13:42:59;15.80;66.10
26589;DHT22;14235;48.532;8.722;2023-03-21T13:45:34;16.00;65.00
26589;DHT22;14235;48.532;8.722;2023-03-21T13:48:27;16.00;65.80
26589;DHT22;14235;48.532;8.722;2023-03-21T13:53:29;16.10;67.70
26589;DHT22;14235;48.532;8.722;2023-03-21T13:58:50;16.10;67.20
26589;DHT22;14235;48.532;8.722;2023-03-21T14:01:32;16.20;67.00
26589;DHT22;14235;48.532;8.722;2023-03-21T14:06:34;16.10;67.60
26589;DHT22;14235;48.532;8.722;2023-03-21T14:09:02;16.00;68.90
26589;DHT22;14235;48.532;8.722;2023-03-21T14:11:28;16.50;71.20
26589;DHT22;14235;48.532;8.722;2023-03-21T14:13:57;16.30;70.50
26589;DHT22;14235;48.532;8.722;2023-03-21T14:16:25;16.50;71.10
26589;DHT22;14235;48.532;8.722;2023-03-21T14:19:00;16.50;72.80
26589;DHT22;14235;48.532;8.722;2023-03-21T14:21:29;16.60;71.80
26589;DHT22;14235;48.532;8.722;2023-03-21T14:24:06;16.80;72.90
26589;DHT22;14235;48.532;8.722;2023-03-21T14:26:36;16.60;70.00
26589;DHT22;14235;48.532;8.722;2023-03-21T14:29:05;16.90;69.40
26589;DHT22;14235;48.532;8.722;2023-03-21T14:31:32;16.80;69.10
26589;DHT22;14235;48.532;8.722;2023-03-21T14:33:58;16.80;68.90
26589;DHT22;14235;48.532;8.722;2023-03-21T14:36:29;16.80;68.20
26589;DHT22;14235;48.532;8.722;2023-03-21T14:39:01;17.10;69.80
26589;DHT22;14235;48.532;8.722;2023-03-21T14:41:29;16.70;68.50
26589;DHT22;14235;48.532;8.722;2023-03-21T14:44:22;16.90;70.20
26589;DHT22;14235;48.532;8.722;2023-03-21T14:47:06;16.50;70.10
26589;DHT22;14235;48.532;8.722;2023-03-21T14:49:33;16.40;72.30
26589;DHT22;14235;48.532;8.722;2023-03-21T14:52:24;16.50;73.70
26589;DHT22;14235;48.532;8.722;2023-03-21T14:54:51;16.30;74.30
26589;DHT22;14235;48.532;8.722;2023-03-21T14:57:23;16.50;76.20
26589;DHT22;14235;48.532;8.722;2023-03-21T14:59:52;16.20;75.60
26589;DHT22;14235;48.532;8.722;2023-03-21T15:02:22;16.40;75.70
26589;DHT22;14235;48.532;8.722;2023-03-21T15:04:51;16.40;76.00
26589;DHT22;14235;48.532;8.722;2023-03-21T15:07:31;16.20;75.80
26589;DHT22;14235;48.532;8.722;2023-03-21T15:10:04;16.20;76.10
26589;DHT22;14235;48.532;8.722;2023-03-21T15:12:30;16.20;75.90
26589;DHT22;14235;48.532;8.722;2023-03-21T15:14:57;15.80;74.60
26589;DHT22;14235;48.532;8.722;2023-03-21T15:17:24;16.10;76.20
26589;DHT22;14235;48.532;8.722;2023-03-21T15:19:50;15.90;77.20
26589;DHT22;14235;48.532;8.722;2023-03-21T15:22:34;16.00;77.70
26589;DHT22;14235;48.532;8.722;2023-03-21T15:25:03;15.90;76.80
26589;DHT22;14235;48.532;8.722;2023-03-21T15:27:35;15.90;77.20
26589;DHT22;14235;48.532;8.722;2023-03-21T15:30:02;15.90;78.30
26589;DHT22;14235;48.532;8.722;2023-03-21T15:32:28;15.80;77.60
26589;DHT22;14235;48.532;8.722;2023-03-21T15:35:02;16.20;77.00
26589;DHT22;14235;48.532;8.722;2023-03-21T15:37:33;16.00;77.30
26589;DHT22;14235;48.532;8.722;2023-03-21T15:42:40;15.70;76.40
26589;DHT22;14235;48.532;8.722;2023-03-21T15:45:23;15.80;76.90
26589;DHT22;14235;48.532;8.722;2023-03-21T15:47:53;15.80;75.30
26589;DHT22;14235;48.532;8.722;2023-03-21T15:52:49;15.60;76.90
26589;DHT22;14235;48.532;8.722;2023-03-21T15:58:12;15.60;77.60
26589;DHT22;14235;48.532;8.722;2023-03-21T16:00:42;15.70;78.20
26589;DHT22;14235;48.532;8.722;2023-03-21T16:03:26;15.50;78.60
26589;DHT22;14235;48.532;8.722;2023-03-21T16:09:09;15.40;78.90
26589;DHT22;14235;48.532;8.722;2023-03-21T16:11:38;15.40;78.90
26589;DHT22;14235;48.532;8.722;2023-03-21T16:14:04;15.50;79.00
26589;DHT22;14235;48.532;8.722;2023-03-21T16:16:30;15.40;78.40
26589;DHT22;14235;48.532;8.722;2023-03-21T16:18:57;15.70;78.20
26589;DHT22;14235;48.532;8.722;2023-03-21T16:21:25;15.10;77.50
26589;DHT22;14235;48.532;8.722;2023-03-21T16:23:51;15.20;78.10
26589;DHT22;14235;48.532;8.722;2023-03-21T16:26:24;15.10;78.40
26589;DHT22;14235;48.532;8.722;2023-03-21T16:28:49;15.10;79.10
26589;DHT22;14235;48.532;8.722;2023-03-21T16:31:17;15.20;79.90
26589;DHT22;14235;48.532;8.722;2023-03-21T16:33:44;15.10;80.30
26589;DHT22;14235;48.532;8.722;2023-03-21T16:36:14;15.00;80.20
26589;DHT22;14235;48.532;8.722;2023-03-21T16:38:42;15.00;80.30
26589;DHT22;14235;48.532;8.722;2023-03-21T16:41:12;15.10;80.50
26589;DHT22;14235;48.532;8.722;2023-03-21T16:43:38;14.90;80.30
26589;DHT22;14235;48.532;8.722;2023-03-21T16:46:11;15.30;81.90
26589;DHT22;14235;48.532;8.722;2023-03-21T16:48:38;15.00;82.20
26589;DHT22;14235;48.532;8.722;2023-03-21T16:51:04;15.00;82.70
26589;DHT22;14235;48.532;8.722;2023-03-21T16:53:29;14.80;82.80
26589;DHT22;14235;48.532;8.722;2023-03-21T16:55:55;14.70;82.80
26589;DHT22;14235;48.532;8.722;2023-03-21T16:58:27;14.90;83.00
26589;DHT22;14235;48.532;8.722;2023-03-21T17:00:53;14.90;83.40
26589;DHT22;14235;48.532;8.722;2023-03-21T17:03:18;14.90;83.90
26589;DHT22;14235;48.532;8.722;2023-03-21T17:05:45;14.70;87.00
26589;DHT22;14235;48.532;8.722;2023-03-21T17:08:14;14.90;90.30
26589;DHT22;14235;48.532;8.722;2023-03-21T17:10:40;14.60;90.10
26589;DHT22;14235;48.532;8.722;2023-03-21T17:13:06;14.60;90.30
26589;DHT22;14235;48.532;8.722;2023-03-21T17:15:31;14.60;90.30
26589;DHT22;14235;48.532;8.722;2023-03-21T17:17:57;14.40;90.00
26589;DHT22;14235;48.532;8.722;2023-03-21T17:20:32;14.40;90.40
26589;DHT22;14235;48.532;8.722;2023-03-21T17:22:59;14.40;90.80
26589;DHT22;14235;48.532;8.722;2023-03-21T17:25:25;14.40;91.30
26589;DHT22;14235;48.532;8.722;2023-03-21T17:27:51;14.40;91.40
26589;DHT22;14235;48.532;8.722;2023-03-21T17:30:24;14.70;91.70
26589;DHT22;14235;48.532;8.722;2023-03-21T17:32:51;14.40;92.20
26589;DHT22;14235;48.532;8.722;2023-03-21T17:35:18;14.20;92.40
26589;DHT22;14235;48.532;8.722;2023-03-21T17:37:44;14.30;92.30
26589;DHT22;14235;48.532;8.722;2023-03-21T17:40:24;14.10;92.30
26589;DHT22;14235;48.532;8.722;2023-03-21T17:42:51;14.10;91.90
26589;DHT22;14235;48.532;8.722;2023-03-21T17:45:17;14.30;91.80
26589;DHT22;14235;48.532;8.722;2023-03-21T17:47:43;14.10;92.20
26589;DHT22;14235;48.532;8.722;2023-03-21T17:52:43;14.10;92.80
26589;DHT22;14235;48.532;8.722;2023-03-21T17:55:08;14.10;93.00
26589;DHT22;14235;48.532;8.722;2023-03-21T17:57:34;14.10;93.00
26589;DHT22;14235;48.532;8.722;2023-03-21T18:00:03;14.00;93.40
26589;DHT22;14235;48.532;8.722;2023-03-21T18:02:33;14.20;93.80
26589;DHT22;14235;48.532;8.722;2023-03-21T18:04:58;14.10;94.00
26589;DHT22;14235;48.532;8.722;2023-03-21T18:07:24;13.90;93.70
26589;DHT22;14235;48.532;8.722;2023-03-21T18:09:50;13.90;93.30
26589;DHT22;14235;48.532;8.722;2023-03-21T18:12:16;13.80;94.00
26589;DHT22;14235;48.532;8.722;2023-03-21T18:14:42;13.80;94.20
26589;DHT22;14235;48.532;8.722;2023-03-21T18:17:10;13.70;94.70
26589;DHT22;14235;48.532;8.722;2023-03-21T18:19:35;13.70;95.10
26589;DHT22;14235;48.532;8.722;2023-03-21T18:22:02;13.70;95.30
26589;DHT22;14235;48.532;8.722;2023-03-21T18:24:28;13.60;95.60
26589;DHT22;14235;48.532;8.722;2023-03-21T18:26:54;13.80;96.20
26589;DHT22;14235;48.532;8.722;2023-03-21T18:29:20;13.80;96.80
26589;DHT22;14235;48.532;8.722;2023-03-21T18:31:46;13.80;97.20
26589;DHT22;14235;48.532;8.722;2023-03-21T18:34:11;13.60;97.10
26589;DHT22;14235;48.532;8.722;2023-03-21T18:36:38;13.70;97.30
26589;DHT22;14235;48.532;8.722;2023-03-21T18:39:03;13.70;97.70
26589;DHT22;14235;48.532;8.722;2023-03-21T18:41:29;13.70;98.00
26589;DHT22;14235;48.532;8.722;2023-03-21T18:43:55;13.60;98.20
26589;DHT22;14235;48.532;8.722;2023-03-21T18:46:21;13.60;98.50
26589;DHT22;14235;48.532;8.722;2023-03-21T18:48:47;13.60;98.90
26589;DHT22;14235;48.532;8.722;2023-03-21T18:51:12;13.50;99.20
26589;DHT22;14235;48.532;8.722;2023-03-21T18:53:38;13.40;99.20
26589;DHT22;14235;48.532;8.722;2023-03-21T18:56:04;13.40;99.40
26589;DHT22;14235;48.532;8.722;2023-03-21T18:58:29;13.40;99.70
26589;DHT22;14235;48.532;8.722;2023-03-21T19:00:58;13.30;99.90
26589;DHT22;14235;48.532;8.722;2023-03-21T19:03:24;13.50;99.90
26589;DHT22;14235;48.532;8.722;2023-03-21T19:05:50;13.40;99.90
26589;DHT22;14235;48.532;8.722;2023-03-21T19:08:15;13.30;99.90
26589;DHT22;14235;48.532;8.722;2023-03-21T19:10:41;13.40;99.90
26589;DHT22;14235;48.532;8.722;2023-03-21T19:13:07;13.40;99.90
26589;DHT22;14235;48.532;8.722;2023-03-21T19:15:33;13.20;99.90
26589;DHT22;14235;48.532;8.722;2023-03-21T19:17:58;13.20;99.90
26589;DHT22;14235;48.532;8.722;2023-03-21T19:20:24;13.10;99.90
26589;DHT22;14235;48.532;8.722;2023-03-21T19:22:50;13.10;99.90
26589;DHT22;14235;48.532;8.722;2023-03-21T19:25:16;13.10;99.90
26589;DHT22;14235;48.532;8.722;2023-03-21T19:27:42;12.90;99.90
26589;DHT22;14235;48.532;8.722;2023-03-21T19:30:10;12.90;99.90
26589;DHT22;14235;48.532;8.722;2023-03-21T19:32:36;13.00;99.90
26589;DHT22;14235;48.532;8.722;2023-03-21T19:35:02;13.00;99.90
26589;DHT22;14235;48.532;8.722;2023-03-21T19:37:28;13.00;99.90
26589;DHT22;14235;48.532;8.722;2023-03-21T19:39:54;13.00;99.90
26589;DHT22;14235;48.532;8.722;2023-03-21T19:42:21;12.80;99.90
26589;DHT22;14235;48.532;8.722;2023-03-21T19:44:48;12.70;99.90
26589;DHT22;14235;48.532;8.722;2023-03-21T19:47:13;12.60;99.90
26589;DHT22;14235;48.532;8.722;2023-03-21T19:49:39;12.70;99.90
26589;DHT22;14235;48.532;8.722;2023-03-21T19:52:06;12.70;99.90
26589;DHT22;14235;48.532;8.722;2023-03-21T19:54:35;12.60;99.90
26589;DHT22;14235;48.532;8.722;2023-03-21T19:57:01;12.70;99.90
26589;DHT22;14235;48.532;8.722;2023-03-21T19:59:27;12.70;99.90
26589;DHT22;14235;48.532;8.722;2023-03-21T20:01:52;12.70;99.90
26589;DHT22;14235;48.532;8.722;2023-03-21T20:04:18;12.70;99.90
26589;DHT22;14235;48.532;8.722;2023-03-21T20:06:44;12.80;99.90
26589;DHT22;14235;48.532;8.722;2023-03-21T20:09:10;12.70;99.90
26589;DHT22;14235;48.532;8.722;2023-03-21T20:11:37;12.60;99.90
26589;DHT22;14235;48.532;8.722;2023-03-21T20:14:02;12.60;99.90
26589;DHT22;14235;48.532;8.722;2023-03-21T20:16:30;12.70;99.90
26589;DHT22;14235;48.532;8.722;2023-03-21T20:18:57;12.80;99.90
26589;DHT22;14235;48.532;8.722;2023-03-21T20:21:23;12.60;99.90
26589;DHT22;14235;48.532;8.722;2023-03-21T20:23:51;12.60;99.90
26589;DHT22;14235;48.532;8.722;2023-03-21T20:26:17;12.60;99.90
26589;DHT22;14235;48.532;8.722;2023-03-21T20:28:43;12.50;99.90
26589;DHT22;14235;48.532;8.722;2023-03-21T20:31:13;12.70;99.90
26589;DHT22;14235;48.532;8.722;2023-03-21T20:33:40;12.50;99.90
26589;DHT22;14235;48.532;8.722;2023-03-21T20:36:07;12.50;99.90
26589;DHT22;14235;48.532;8.722;2023-03-21T20:38:34;12.50;99.90
26589;DHT22;14235;48.532;8.722;2023-03-21T20:41:02;12.70;99.90
26589;DHT22;14235;48.532;8.722;2023-03-21T20:43:28;12.70;99.90
26589;DHT22;14235;48.532;8.722;2023-03-21T20:46:06;12.70;99.90
26589;DHT22;14235;48.532;8.722;2023-03-21T20:48:33;12.30;99.90
26589;DHT22;14235;48.532;8.722;2023-03-21T20:51:05;12.40;99.90
26589;DHT22;14235;48.532;8.722;2023-03-21T20:53:33;12.30;99.90